Marseilles, IL (61341)

7:41 AM CDT on July 25, 2016 (GMT -0500)
South Ottawa IL | | Change Station
Active Advisory: Flood Advisory Active Notice: Public Information Statement

Elev 607 ft 41.33 °N, 88.83 °W | Updated 7 minutes ago

Clear
Clear
76.6 °F
Feels Like 78 °F
N
1.1
Wind Variable Wind from NNW

Today
High -- | Low -- °F
--% Chance of Precip.
Yesterday
High -- | Low -- °F
Precip. -- in
Pressure 29.97 in
Visibility 10.0 miles
Clouds Clear
Heat Index 78 °F
Dew Point 69 °F
Humidity 77%
Rainfall 0.00 in
Snow Depth Not available.
5:43 AM 8:18 PM
Waning Gibbous, 66% visible
METAR KC09 251235Z AUTO 33004KT 10SM CLR 23/21 A2997 RMK AO2 T02310210
Pressure 29.97 in
Visibility 10.0 miles
Clouds Clear
Heat Index 78 °F
Dew Point 69 °F
Humidity 77%
Rainfall 0.00 in
Snow Depth Not available.
5:43 AM 8:18 PM
Waning Gibbous, 66% visible
METAR KC09 251235Z AUTO 33004KT 10SM CLR 23/21 A2997 RMK AO2 T02310210

10-Day Weather Forecast

Almanac

Astronomy

Jul. 25, 2016 Rise Set
Actual Time
Civil Twilight
Nautical Twilight
Astronomical Twilight
Moon
Length of Visible Light
Length of Day
Tomorrow will be .
, % of the Moon is Illuminated

Today's Extremes

State Highs State Lows

Community

WunderPhotos

Upload Photos

1,927,296 photos uploaded!

WunderBlog® & News

Nearby

Air Quality

  Air Quality AQ Index Pollutant
Not available.

Snow Depth

Station Depth Elevation

Earthquake Activity

City Distance Mag. Time & Date
Minimum magnitude displayed is 2.5.

Coastal Water Temperatures

Place Temperature

Stations

Nearby Weather Stations

Station Location Temp. Windchill Dew Point Humidity Wind Precip. Elev Updated Type
                   

Watches & Warnings

Flood Advisory
Issued: 9:51 PM CDT Jul. 24, 2016 – National Weather Service

The National Weather Service in Chicago has issued a
* Flood Advisory for
the Illinois River at Ottawa.
* Until Monday afternoon.
* At 930 PM Sunday the stage was 461.1 feet.
* Action stage is 461.0 feet.
* Flood stage is 463.0 feet.
* Forecast... the river will rise to near 461.2 feet by early Monday.



Lat... Lon 4135 8868 4137 8896 4128 8897 4127 8867